sensor_id;sensor_type;location;lat;lon;timestamp;temperature;humidity
65752;DHT22;52486;51.098;13.770;2022-10-22T00:01:04;24.40;76.50
65752;DHT22;52486;51.098;13.770;2022-10-22T00:03:30;24.40;76.60
65752;DHT22;52486;51.098;13.770;2022-10-22T00:05:56;24.30;76.50
65752;DHT22;52486;51.098;13.770;2022-10-22T00:08:21;24.40;76.60
65752;DHT22;52486;51.098;13.770;2022-10-22T00:10:47;24.50;76.60
65752;DHT22;52486;51.098;13.770;2022-10-22T00:13:13;24.30;76.40
65752;DHT22;52486;51.098;13.770;2022-10-22T00:15:38;24.40;76.50
65752;DHT22;52486;51.098;13.770;2022-10-22T00:18:04;24.20;76.40
65752;DHT22;52486;51.098;13.770;2022-10-22T00:20:30;24.30;76.40
65752;DHT22;52486;51.098;13.770;2022-10-22T00:22:55;24.20;76.40
65752;DHT22;52486;51.098;13.770;2022-10-22T00:25:21;24.20;76.30
65752;DHT22;52486;51.098;13.770;2022-10-22T00:27:46;24.40;76.50
65752;DHT22;52486;51.098;13.770;2022-10-22T00:30:12;24.40;76.40
65752;DHT22;52486;51.098;13.770;2022-10-22T00:32:37;24.20;76.40
65752;DHT22;52486;51.098;13.770;2022-10-22T00:35:03;24.40;76.40
65752;DHT22;52486;51.098;13.770;2022-10-22T00:37:29;24.30;75.90
65752;DHT22;52486;51.098;13.770;2022-10-22T00:39:55;24.40;76.30
65752;DHT22;52486;51.098;13.770;2022-10-22T00:42:23;24.20;76.40
65752;DHT22;52486;51.098;13.770;2022-10-22T00:52:56;24.20;76.80
65752;DHT22;52486;51.098;13.770;2022-10-22T00:55:24;24.20;76.30
65752;DHT22;52486;51.098;13.770;2022-10-22T00:57:51;24.20;76.40
65752;DHT22;52486;51.098;13.770;2022-10-22T01:00:18;24.30;76.20
65752;DHT22;52486;51.098;13.770;2022-10-22T01:02:44;24.30;76.30
65752;DHT22;52486;51.098;13.770;2022-10-22T01:05:10;24.30;76.30
65752;DHT22;52486;51.098;13.770;2022-10-22T01:07:40;24.40;77.20
65752;DHT22;52486;51.098;13.770;2022-10-22T01:10:22;24.20;76.40
65752;DHT22;52486;51.098;13.770;2022-10-22T01:16:11;24.30;74.70
65752;DHT22;52486;51.098;13.770;2022-10-22T01:21:37;24.20;74.80
65752;DHT22;52486;51.098;13.770;2022-10-22T01:26:57;24.30;74.40
65752;DHT22;52486;51.098;13.770;2022-10-22T01:29:41;24.30;75.30
65752;DHT22;52486;51.098;13.770;2022-10-22T01:32:13;24.20;75.00
65752;DHT22;52486;51.098;13.770;2022-10-22T01:34:41;24.00;76.60
65752;DHT22;52486;51.098;13.770;2022-10-22T01:37:09;24.20;76.40
65752;DHT22;52486;51.098;13.770;2022-10-22T01:39:37;24.20;76.50
65752;DHT22;52486;51.098;13.770;2022-10-22T01:42:04;24.20;76.50
65752;DHT22;52486;51.098;13.770;2022-10-22T01:44:31;24.30;76.70
65752;DHT22;52486;51.098;13.770;2022-10-22T01:47:16;24.20;76.60
65752;DHT22;52486;51.098;13.770;2022-10-22T01:53:18;24.10;75.10
65752;DHT22;52486;51.098;13.770;2022-10-22T01:55:50;24.30;75.20
65752;DHT22;52486;51.098;13.770;2022-10-22T01:58:40;24.30;76.50
65752;DHT22;52486;51.098;13.770;2022-10-22T02:01:18;24.20;75.30
65752;DHT22;52486;51.098;13.770;2022-10-22T02:04:11;24.10;76.90
65752;DHT22;52486;51.098;13.770;2022-10-22T02:06:38;24.20;75.10
65752;DHT22;52486;51.098;13.770;2022-10-22T02:09:05;24.20;76.60
65752;DHT22;52486;51.098;13.770;2022-10-22T02:11:31;24.10;76.60
65752;DHT22;52486;51.098;13.770;2022-10-22T02:13:59;24.10;76.80
65752;DHT22;52486;51.098;13.770;2022-10-22T02:16:45;24.20;76.70
65752;DHT22;52486;51.098;13.770;2022-10-22T02:21:49;24.20;75.10
65752;DHT22;52486;51.098;13.770;2022-10-22T02:24:15;24.10;77.40
65752;DHT22;52486;51.098;13.770;2022-10-22T02:26:51;24.10;76.70
65752;DHT22;52486;51.098;13.770;2022-10-22T02:29:50;24.20;77.10
65752;DHT22;52486;51.098;13.770;2022-10-22T02:32:20;24.20;77.10
65752;DHT22;52486;51.098;13.770;2022-10-22T02:34:49;24.10;76.60
65752;DHT22;52486;51.098;13.770;2022-10-22T02:37:15;24.30;76.90
65752;DHT22;52486;51.098;13.770;2022-10-22T02:39:43;24.20;76.70
65752;DHT22;52486;51.098;13.770;2022-10-22T02:42:09;24.20;76.80
65752;DHT22;52486;51.098;13.770;2022-10-22T02:44:36;24.20;76.40
65752;DHT22;52486;51.098;13.770;2022-10-22T02:47:02;24.20;77.00
65752;DHT22;52486;51.098;13.770;2022-10-22T02:49:27;24.20;77.00
65752;DHT22;52486;51.098;13.770;2022-10-22T02:51:53;24.10;76.90
65752;DHT22;52486;51.098;13.770;2022-10-22T02:54:18;24.10;77.00
65752;DHT22;52486;51.098;13.770;2022-10-22T02:56:44;24.20;77.00
65752;DHT22;52486;51.098;13.770;2022-10-22T02:59:09;24.20;77.00
65752;DHT22;52486;51.098;13.770;2022-10-22T03:01:35;24.10;77.00
65752;DHT22;52486;51.098;13.770;2022-10-22T03:04:01;24.10;77.00
65752;DHT22;52486;51.098;13.770;2022-10-22T03:06:26;24.20;77.10
65752;DHT22;52486;51.098;13.770;2022-10-22T03:08:52;24.10;77.10
65752;DHT22;52486;51.098;13.770;2022-10-22T03:11:17;24.10;77.10
65752;DHT22;52486;51.098;13.770;2022-10-22T03:13:43;24.10;77.20
65752;DHT22;52486;51.098;13.770;2022-10-22T03:16:08;24.00;77.00
65752;DHT22;52486;51.098;13.770;2022-10-22T03:18:34;24.20;77.20
65752;DHT22;52486;51.098;13.770;2022-10-22T03:21:10;24.10;77.30
65752;DHT22;52486;51.098;13.770;2022-10-22T03:23:38;24.20;77.50
65752;DHT22;52486;51.098;13.770;2022-10-22T03:26:05;24.20;77.20
65752;DHT22;52486;51.098;13.770;2022-10-22T03:28:31;24.00;76.90
65752;DHT22;52486;51.098;13.770;2022-10-22T03:30:57;24.30;77.10
65752;DHT22;52486;51.098;13.770;2022-10-22T03:33:23;24.20;76.60
65752;DHT22;52486;51.098;13.770;2022-10-22T03:35:48;24.10;77.20
65752;DHT22;52486;51.098;13.770;2022-10-22T03:38:14;24.10;77.20
65752;DHT22;52486;51.098;13.770;2022-10-22T03:40:41;24.20;77.50
65752;DHT22;52486;51.098;13.770;2022-10-22T03:43:08;24.00;77.20
65752;DHT22;52486;51.098;13.770;2022-10-22T03:45:33;24.00;77.30
65752;DHT22;52486;51.098;13.770;2022-10-22T03:47:59;24.10;77.40
65752;DHT22;52486;51.098;13.770;2022-10-22T03:50:24;24.00;77.20
65752;DHT22;52486;51.098;13.770;2022-10-22T03:52:50;24.30;77.50
65752;DHT22;52486;51.098;13.770;2022-10-22T03:55:17;24.00;77.20
65752;DHT22;52486;51.098;13.770;2022-10-22T03:57:43;24.10;77.40
65752;DHT22;52486;51.098;13.770;2022-10-22T04:00:09;24.20;77.50
65752;DHT22;52486;51.098;13.770;2022-10-22T04:02:34;24.20;77.00
65752;DHT22;52486;51.098;13.770;2022-10-22T04:05:00;24.10;77.50
65752;DHT22;52486;51.098;13.770;2022-10-22T04:07:25;24.10;77.50
65752;DHT22;52486;51.098;13.770;2022-10-22T04:09:51;24.10;77.40
65752;DHT22;52486;51.098;13.770;2022-10-22T04:12:17;24.00;77.50
65752;DHT22;52486;51.098;13.770;2022-10-22T04:14:42;24.10;77.70
65752;DHT22;52486;51.098;13.770;2022-10-22T04:17:08;24.10;77.60
65752;DHT22;52486;51.098;13.770;2022-10-22T04:19:33;24.00;77.60
65752;DHT22;52486;51.098;13.770;2022-10-22T04:22:00;24.10;77.50
65752;DHT22;52486;51.098;13.770;2022-10-22T04:24:26;24.20;77.10
65752;DHT22;52486;51.098;13.770;2022-10-22T04:26:54;24.10;77.10
65752;DHT22;52486;51.098;13.770;2022-10-22T04:29:20;24.00;77.90
65752;DHT22;52486;51.098;13.770;2022-10-22T04:31:45;24.00;77.60
65752;DHT22;52486;51.098;13.770;2022-10-22T04:34:11;24.00;77.50
65752;DHT22;52486;51.098;13.770;2022-10-22T04:36:37;24.00;77.50
65752;DHT22;52486;51.098;13.770;2022-10-22T04:39:03;24.00;77.50
65752;DHT22;52486;51.098;13.770;2022-10-22T04:41:35;24.10;77.50
65752;DHT22;52486;51.098;13.770;2022-10-22T04:44:01;24.10;77.80
65752;DHT22;52486;51.098;13.770;2022-10-22T04:46:28;24.00;77.30
65752;DHT22;52486;51.098;13.770;2022-10-22T04:48:54;24.00;77.50
65752;DHT22;52486;51.098;13.770;2022-10-22T04:51:22;24.00;77.60
65752;DHT22;52486;51.098;13.770;2022-10-22T04:53:48;23.90;77.50
65752;DHT22;52486;51.098;13.770;2022-10-22T04:56:18;24.10;77.60
65752;DHT22;52486;51.098;13.770;2022-10-22T04:58:46;24.10;77.50
65752;DHT22;52486;51.098;13.770;2022-10-22T05:01:18;24.10;77.50
65752;DHT22;52486;51.098;13.770;2022-10-22T05:03:45;24.00;78.70
65752;DHT22;52486;51.098;13.770;2022-10-22T05:06:12;24.00;77.70
65752;DHT22;52486;51.098;13.770;2022-10-22T05:08:38;24.10;77.70
65752;DHT22;52486;51.098;13.770;2022-10-22T05:11:15;23.90;77.70
65752;DHT22;52486;51.098;13.770;2022-10-22T05:13:40;24.00;78.20
65752;DHT22;52486;51.098;13.770;2022-10-22T05:16:06;24.00;77.80
65752;DHT22;52486;51.098;13.770;2022-10-22T05:18:36;24.10;77.90
65752;DHT22;52486;51.098;13.770;2022-10-22T05:21:03;24.10;78.00
65752;DHT22;52486;51.098;13.770;2022-10-22T05:23:29;24.20;77.80
65752;DHT22;52486;51.098;13.770;2022-10-22T05:25:55;24.00;77.70
65752;DHT22;52486;51.098;13.770;2022-10-22T05:28:20;24.10;78.50
65752;DHT22;52486;51.098;13.770;2022-10-22T05:30:57;24.00;78.40
65752;DHT22;52486;51.098;13.770;2022-10-22T05:33:23;23.90;76.10
65752;DHT22;52486;51.098;13.770;2022-10-22T05:35:50;23.90;77.70
65752;DHT22;52486;51.098;13.770;2022-10-22T05:38:16;24.00;77.60
65752;DHT22;52486;51.098;13.770;2022-10-22T05:40:42;23.90;77.50
65752;DHT22;52486;51.098;13.770;2022-10-22T05:43:08;23.90;77.60
65752;DHT22;52486;51.098;13.770;2022-10-22T05:45:37;23.90;77.60
65752;DHT22;52486;51.098;13.770;2022-10-22T05:48:04;23.90;78.00
65752;DHT22;52486;51.098;13.770;2022-10-22T05:50:30;23.90;77.60
65752;DHT22;52486;51.098;13.770;2022-10-22T05:52:55;24.00;77.90
65752;DHT22;52486;51.098;13.770;2022-10-22T05:55:21;24.00;78.10
65752;DHT22;52486;51.098;13.770;2022-10-22T05:57:46;23.90;77.90
65752;DHT22;52486;51.098;13.770;2022-10-22T06:00:15;23.90;77.80
65752;DHT22;52486;51.098;13.770;2022-10-22T06:02:40;23.90;77.50
65752;DHT22;52486;51.098;13.770;2022-10-22T06:05:06;24.00;78.10
65752;DHT22;52486;51.098;13.770;2022-10-22T06:07:31;24.10;78.10
65752;DHT22;52486;51.098;13.770;2022-10-22T06:09:58;23.90;77.90
65752;DHT22;52486;51.098;13.770;2022-10-22T06:12:24;24.00;77.50
65752;DHT22;52486;51.098;13.770;2022-10-22T06:14:49;24.10;78.30
65752;DHT22;52486;51.098;13.770;2022-10-22T06:17:15;23.90;78.10
65752;DHT22;52486;51.098;13.770;2022-10-22T06:19:41;23.90;78.10
65752;DHT22;52486;51.098;13.770;2022-10-22T06:22:06;23.90;78.30
65752;DHT22;52486;51.098;13.770;2022-10-22T06:24:32;24.00;78.00
65752;DHT22;52486;51.098;13.770;2022-10-22T06:26:58;23.80;78.10
65752;DHT22;52486;51.098;13.770;2022-10-22T06:29:23;24.10;78.20
65752;DHT22;52486;51.098;13.770;2022-10-22T06:31:49;23.90;78.00
65752;DHT22;52486;51.098;13.770;2022-10-22T06:34:15;23.90;78.10
65752;DHT22;52486;51.098;13.770;2022-10-22T06:36:43;24.00;78.00
65752;DHT22;52486;51.098;13.770;2022-10-22T06:39:11;23.90;77.90
65752;DHT22;52486;51.098;13.770;2022-10-22T06:41:37;24.00;78.10
65752;DHT22;52486;51.098;13.770;2022-10-22T06:44:03;24.00;78.10
65752;DHT22;52486;51.098;13.770;2022-10-22T06:46:28;23.90;78.10
65752;DHT22;52486;51.098;13.770;2022-10-22T06:48:59;23.90;78.00
65752;DHT22;52486;51.098;13.770;2022-10-22T06:51:25;23.90;78.00
65752;DHT22;52486;51.098;13.770;2022-10-22T06:53:52;23.90;78.00
65752;DHT22;52486;51.098;13.770;2022-10-22T06:56:20;24.00;78.10
65752;DHT22;52486;51.098;13.770;2022-10-22T06:58:47;23.90;77.90
65752;DHT22;52486;51.098;13.770;2022-10-22T07:01:14;23.80;78.00
65752;DHT22;52486;51.098;13.770;2022-10-22T07:03:41;23.90;77.90
65752;DHT22;52486;51.098;13.770;2022-10-22T07:06:09;24.10;78.30
65752;DHT22;52486;51.098;13.770;2022-10-22T07:08:36;24.00;78.20
65752;DHT22;52486;51.098;13.770;2022-10-22T07:11:16;23.90;78.00
65752;DHT22;52486;51.098;13.770;2022-10-22T07:13:43;24.00;78.60
65752;DHT22;52486;51.098;13.770;2022-10-22T07:16:10;23.80;78.10
65752;DHT22;52486;51.098;13.770;2022-10-22T07:18:36;23.90;78.10
65752;DHT22;52486;51.098;13.770;2022-10-22T07:21:03;23.90;78.30
65752;DHT22;52486;51.098;13.770;2022-10-22T07:23:29;24.00;78.10
65752;DHT22;52486;51.098;13.770;2022-10-22T07:25:54;24.00;78.30
65752;DHT22;52486;51.098;13.770;2022-10-22T07:28:20;23.90;78.00
65752;DHT22;52486;51.098;13.770;2022-10-22T07:30:45;24.00;78.20
65752;DHT22;52486;51.098;13.770;2022-10-22T07:33:12;23.90;78.00
65752;DHT22;52486;51.098;13.770;2022-10-22T07:35:38;23.90;78.10
65752;DHT22;52486;51.098;13.770;2022-10-22T07:38:05;23.90;78.00
65752;DHT22;52486;51.098;13.770;2022-10-22T07:40:31;23.90;78.10
65752;DHT22;52486;51.098;13.770;2022-10-22T07:42:57;23.90;78.00
65752;DHT22;52486;51.098;13.770;2022-10-22T07:45:22;23.80;78.10
65752;DHT22;52486;51.098;13.770;2022-10-22T07:47:48;24.00;78.30
65752;DHT22;52486;51.098;13.770;2022-10-22T07:50:14;23.90;77.50
65752;DHT22;52486;51.098;13.770;2022-10-22T07:52:40;24.20;78.30
65752;DHT22;52486;51.098;13.770;2022-10-22T07:55:06;23.80;78.40
65752;DHT22;52486;51.098;13.770;2022-10-22T07:57:32;24.00;78.00
65752;DHT22;52486;51.098;13.770;2022-10-22T07:59:57;23.90;78.30
65752;DHT22;52486;51.098;13.770;2022-10-22T08:02:24;24.10;78.80
65752;DHT22;52486;51.098;13.770;2022-10-22T08:04:49;23.90;78.60
65752;DHT22;52486;51.098;13.770;2022-10-22T08:07:16;24.00;78.30
65752;DHT22;52486;51.098;13.770;2022-10-22T08:09:42;23.80;78.20
65752;DHT22;52486;51.098;13.770;2022-10-22T08:12:07;23.90;78.40
65752;DHT22;52486;51.098;13.770;2022-10-22T08:14:33;23.80;78.40
65752;DHT22;52486;51.098;13.770;2022-10-22T08:16:59;23.90;78.30
65752;DHT22;52486;51.098;13.770;2022-10-22T08:19:24;23.90;78.50
65752;DHT22;52486;51.098;13.770;2022-10-22T08:21:50;23.80;78.50
65752;DHT22;52486;51.098;13.770;2022-10-22T08:24:15;23.90;78.50
65752;DHT22;52486;51.098;13.770;2022-10-22T08:26:41;23.90;78.60
65752;DHT22;52486;51.098;13.770;2022-10-22T08:29:07;23.90;78.40
65752;DHT22;52486;51.098;13.770;2022-10-22T08:31:33;24.00;78.50
65752;DHT22;52486;51.098;13.770;2022-10-22T08:33:58;23.80;78.60
65752;DHT22;52486;51.098;13.770;2022-10-22T08:36:24;23.80;78.40
65752;DHT22;52486;51.098;13.770;2022-10-22T08:38:49;24.10;78.60
65752;DHT22;52486;51.098;13.770;2022-10-22T08:41:19;23.80;78.40
65752;DHT22;52486;51.098;13.770;2022-10-22T08:48:57;23.90;76.60
65752;DHT22;52486;51.098;13.770;2022-10-22T08:51:28;23.90;78.50
65752;DHT22;52486;51.098;13.770;2022-10-22T08:56:41;23.80;77.00
65752;DHT22;52486;51.098;13.770;2022-10-22T09:01:41;24.00;78.20
65752;DHT22;52486;51.098;13.770;2022-10-22T09:06:51;23.80;76.90
65752;DHT22;52486;51.098;13.770;2022-10-22T09:09:18;24.00;78.90
65752;DHT22;52486;51.098;13.770;2022-10-22T09:11:47;24.00;78.70
65752;DHT22;52486;51.098;13.770;2022-10-22T09:14:24;23.90;78.80
65752;DHT22;52486;51.098;13.770;2022-10-22T09:22:41;23.80;79.20
65752;DHT22;52486;51.098;13.770;2022-10-22T09:25:21;23.90;77.80
65752;DHT22;52486;51.098;13.770;2022-10-22T09:27:48;23.80;77.20
65752;DHT22;52486;51.098;13.770;2022-10-22T09:30:17;23.80;79.10
65752;DHT22;52486;51.098;13.770;2022-10-22T09:32:42;23.90;79.00
65752;DHT22;52486;51.098;13.770;2022-10-22T09:35:12;23.80;78.90
65752;DHT22;52486;51.098;13.770;2022-10-22T09:37:47;23.90;79.20
65752;DHT22;52486;51.098;13.770;2022-10-22T09:40:14;23.80;79.30
65752;DHT22;52486;51.098;13.770;2022-10-22T09:42:40;24.00;79.10
65752;DHT22;52486;51.098;13.770;2022-10-22T09:45:06;23.90;79.00
65752;DHT22;52486;51.098;13.770;2022-10-22T09:47:39;24.10;79.30
65752;DHT22;52486;51.098;13.770;2022-10-22T09:50:21;23.80;80.00
65752;DHT22;52486;51.098;13.770;2022-10-22T09:53:10;23.90;79.50
65752;DHT22;52486;51.098;13.770;2022-10-22T09:55:38;23.90;77.70
65752;DHT22;52486;51.098;13.770;2022-10-22T09:58:06;23.90;78.90
65752;DHT22;52486;51.098;13.770;2022-10-22T10:00:33;24.00;79.00
65752;DHT22;52486;51.098;13.770;2022-10-22T10:02:59;24.00;79.10
65752;DHT22;52486;51.098;13.770;2022-10-22T10:05:28;23.90;79.10
65752;DHT22;52486;51.098;13.770;2022-10-22T10:07:55;23.90;79.00
65752;DHT22;52486;51.098;13.770;2022-10-22T10:10:36;23.70;78.80
65752;DHT22;52486;51.098;13.770;2022-10-22T10:15:54;23.90;79.20
65752;DHT22;52486;51.098;13.770;2022-10-22T10:21:30;24.00;77.40
65752;DHT22;52486;51.098;13.770;2022-10-22T10:24:15;24.10;79.30
65752;DHT22;52486;51.098;13.770;2022-10-22T10:26:56;24.20;77.20
65752;DHT22;52486;51.098;13.770;2022-10-22T10:34:44;24.20;79.10
65752;DHT22;52486;51.098;13.770;2022-10-22T10:37:18;24.20;79.20
65752;DHT22;52486;51.098;13.770;2022-10-22T10:40:02;24.40;78.90
65752;DHT22;52486;51.098;13.770;2022-10-22T10:42:35;24.30;77.10
65752;DHT22;52486;51.098;13.770;2022-10-22T10:50:53;24.60;77.20
65752;DHT22;52486;51.098;13.770;2022-10-22T10:53:42;24.70;78.90
65752;DHT22;52486;51.098;13.770;2022-10-22T10:56:37;24.60;76.60
65752;DHT22;52486;51.098;13.770;2022-10-22T11:01:38;24.80;76.10
65752;DHT22;52486;51.098;13.770;2022-10-22T11:06:57;24.80;76.40
65752;DHT22;52486;51.098;13.770;2022-10-22T11:09:42;25.00;78.10
65752;DHT22;52486;51.098;13.770;2022-10-22T11:12:14;24.90;78.30
65752;DHT22;52486;51.098;13.770;2022-10-22T11:17:40;25.10;76.40
65752;DHT22;52486;51.098;13.770;2022-10-22T11:20:38;25.00;78.40
65752;DHT22;52486;51.098;13.770;2022-10-22T11:23:20;25.00;78.50
65752;DHT22;52486;51.098;13.770;2022-10-22T11:25:48;25.00;78.50
65752;DHT22;52486;51.098;13.770;2022-10-22T11:30:51;25.10;76.60
65752;DHT22;52486;51.098;13.770;2022-10-22T11:33:23;24.90;78.30
65752;DHT22;52486;51.098;13.770;2022-10-22T11:35:52;25.00;78.60
65752;DHT22;52486;51.098;13.770;2022-10-22T11:38:22;25.10;78.70
65752;DHT22;52486;51.098;13.770;2022-10-22T11:40:58;24.90;78.80
65752;DHT22;52486;51.098;13.770;2022-10-22T11:43:34;25.00;78.90
65752;DHT22;52486;51.098;13.770;2022-10-22T11:48:43;25.00;79.20
65752;DHT22;52486;51.098;13.770;2022-10-22T11:51:47;25.10;78.80
65752;DHT22;52486;51.098;13.770;2022-10-22T11:54:37;25.00;79.20
65752;DHT22;52486;51.098;13.770;2022-10-22T12:08:31;24.80;79.40
65752;DHT22;52486;51.098;13.770;2022-10-22T12:11:11;24.90;77.50
65752;DHT22;52486;51.098;13.770;2022-10-22T12:14:02;24.90;79.30
65752;DHT22;52486;51.098;13.770;2022-10-22T12:16:44;25.00;77.60
65752;DHT22;52486;51.098;13.770;2022-10-22T12:19:17;24.90;79.50
65752;DHT22;52486;51.098;13.770;2022-10-22T12:22:14;25.00;77.00
65752;DHT22;52486;51.098;13.770;2022-10-22T12:24:40;24.90;79.00
65752;DHT22;52486;51.098;13.770;2022-10-22T12:27:38;25.00;78.80
65752;DHT22;52486;51.098;13.770;2022-10-22T12:30:31;25.00;79.20
65752;DHT22;52486;51.098;13.770;2022-10-22T12:33:00;25.00;78.90
65752;DHT22;52486;51.098;13.770;2022-10-22T12:35:28;25.10;78.40
65752;DHT22;52486;51.098;13.770;2022-10-22T12:37:56;25.20;78.30
65752;DHT22;52486;51.098;13.770;2022-10-22T12:40:40;25.20;78.20
65752;DHT22;52486;51.098;13.770;2022-10-22T12:43:24;25.40;78.60
65752;DHT22;52486;51.098;13.770;2022-10-22T12:45:50;25.30;78.50
65752;DHT22;52486;51.098;13.770;2022-10-22T12:48:17;25.40;78.00
65752;DHT22;52486;51.098;13.770;2022-10-22T12:50:47;25.50;77.90
65752;DHT22;52486;51.098;13.770;2022-10-22T12:53:31;25.40;77.30
65752;DHT22;52486;51.098;13.770;2022-10-22T12:56:03;25.50;75.60
65752;DHT22;52486;51.098;13.770;2022-10-22T12:58:38;25.60;77.00
65752;DHT22;52486;51.098;13.770;2022-10-22T13:01:05;25.60;77.00
65752;DHT22;52486;51.098;13.770;2022-10-22T13:03:38;25.60;77.10
65752;DHT22;52486;51.098;13.770;2022-10-22T13:06:22;25.80;78.10
65752;DHT22;52486;51.098;13.770;2022-10-22T13:11:33;25.90;85.30
65752;DHT22;52486;51.098;13.770;2022-10-22T13:14:03;26.20;80.20
